Gulfport Biloxi International Airport Gulfport US
ICAO: KGPT
IATA: GPT
Category: Large
Scheduled Services: Yes

Elevation: 28 ft
TransAlt. 18000 ft.

Airport Communications:
APP/DEP:124.6
ATIS:119.45
CTAF:123.7
GND:120.4
ANG OPS:37.78
GREENWOOD RDO:109
TWR:123.7
UNICOM:122.95

KGPT Zoom In..

Runways:

(A) RW 14 length 9002 ft width 150 ft
ILS 110.90 / hdg 133

(B) RW 18 length 4935 ft width 150 ft
---- / hdg 178

(C) RW 32 length 9002 ft width 150 ft
ILS 108.30 / hdg 313

(D) RW 36 length 4935 ft width 150 ft
---- / hdg 358

Location; KGPT
Day. 21 / Time. 13.53 Zulu
* Altimeter: 30.03
* Temperature: 28° c. 82.4°f.
* Wind from: 070° Speed 06 kn.
Dewpoint: 22° c.
Visibility: 10 Statute Miles.
Clouds: Scattered 3200 ft.
Clouds: Scattered 4000 ft.

KGPT 211353Z 07006KT 10SM SCT032 SCT040 28/22 A3003 RMK AO2 LTG DSNT SE AND SW SLP169 T02780222


Wind From 070°
Speed 06 kn.

 
 
jpsmedia.com for Web Design SOUNDCLOUD worldairports.se 2018   terms of use